New Monmouth, New Jersey
Current Conditions -  °F | °C
As of 3:35 PM on Monday 22 Dec 2014 (Local Time) from KBLM Reporting Station
Overcast Overcast  
Wind Chill: 43°   Ceiling: 3300
Heat Index: 43°   Visibility: 10mi
Dew Point: 34°   Wind: 3mph
Humidity: 70%   Direction: 350°N
Pressure: 30.21"   Gusts: NA
Location:  40.3908°N, 74.1116°W
Report Text: KBLM 222035Z AUTO 35003KT 10SM SCT025 BKN033 OVC095 06/01 A3021 RMK AO1
Loading
Personal Weather Stations






























Interactive Weather Map New forecast layout! Learn more

10-Day Weather Forecast

Advertisements
Track Severe Weather on mobile